sensor_id;sensor_type;location;lat;lon;timestamp;P1;durP1;ratioP1;P2;durP2;ratioP2
7833;SDS011;3962;42.696;23.354;2023-05-07T00:01:07;17.27;;;10.97;;
7833;SDS011;3962;42.696;23.354;2023-05-07T00:03:34;18.87;;;11.70;;
7833;SDS011;3962;42.696;23.354;2023-05-07T00:06:01;18.13;;;11.67;;
7833;SDS011;3962;42.696;23.354;2023-05-07T00:08:28;24.37;;;14.20;;
7833;SDS011;3962;42.696;23.354;2023-05-07T00:10:55;23.93;;;15.97;;
7833;SDS011;3962;42.696;23.354;2023-05-07T00:13:23;19.70;;;14.40;;
7833;SDS011;3962;42.696;23.354;2023-05-07T00:15:50;25.57;;;14.43;;
7833;SDS011;3962;42.696;23.354;2023-05-07T00:18:17;25.47;;;14.73;;
7833;SDS011;3962;42.696;23.354;2023-05-07T00:20:46;25.60;;;14.30;;
7833;SDS011;3962;42.696;23.354;2023-05-07T00:23:12;20.07;;;14.00;;
7833;SDS011;3962;42.696;23.354;2023-05-07T00:25:39;21.80;;;14.97;;
7833;SDS011;3962;42.696;23.354;2023-05-07T00:28:06;22.33;;;15.10;;
7833;SDS011;3962;42.696;23.354;2023-05-07T00:30:34;24.43;;;14.53;;
7833;SDS011;3962;42.696;23.354;2023-05-07T00:33:01;19.87;;;13.87;;
7833;SDS011;3962;42.696;23.354;2023-05-07T00:35:28;15.60;;;10.63;;
7833;SDS011;3962;42.696;23.354;2023-05-07T00:37:54;13.43;;;9.40;;
7833;SDS011;3962;42.696;23.354;2023-05-07T00:40:21;14.10;;;10.13;;
7833;SDS011;3962;42.696;23.354;2023-05-07T00:42:48;14.20;;;9.40;;
7833;SDS011;3962;42.696;23.354;2023-05-07T00:45:15;12.97;;;9.60;;
7833;SDS011;3962;42.696;23.354;2023-05-07T00:47:44;14.33;;;9.70;;
7833;SDS011;3962;42.696;23.354;2023-05-07T00:50:11;12.90;;;10.20;;
7833;SDS011;3962;42.696;23.354;2023-05-07T00:52:38;14.57;;;10.03;;
7833;SDS011;3962;42.696;23.354;2023-05-07T00:55:07;17.33;;;10.00;;
7833;SDS011;3962;42.696;23.354;2023-05-07T00:57:35;20.83;;;10.53;;
7833;SDS011;3962;42.696;23.354;2023-05-07T01:00:04;15.80;;;10.47;;
7833;SDS011;3962;42.696;23.354;2023-05-07T01:02:33;17.27;;;10.47;;
7833;SDS011;3962;42.696;23.354;2023-05-07T01:05:02;11.87;;;10.50;;
7833;SDS011;3962;42.696;23.354;2023-05-07T01:07:32;15.27;;;11.07;;
7833;SDS011;3962;42.696;23.354;2023-05-07T01:09:59;17.27;;;10.73;;
7833;SDS011;3962;42.696;23.354;2023-05-07T01:12:27;18.63;;;11.60;;
7833;SDS011;3962;42.696;23.354;2023-05-07T01:14:54;16.67;;;11.63;;
7833;SDS011;3962;42.696;23.354;2023-05-07T01:17:21;15.03;;;10.77;;
7833;SDS011;3962;42.696;23.354;2023-05-07T01:19:49;20.13;;;10.77;;
7833;SDS011;3962;42.696;23.354;2023-05-07T01:24:53;13.40;;;10.97;;
7833;SDS011;3962;42.696;23.354;2023-05-07T01:27:21;21.23;;;10.03;;
7833;SDS011;3962;42.696;23.354;2023-05-07T01:29:48;9.57;;;8.20;;
7833;SDS011;3962;42.696;23.354;2023-05-07T01:32:15;13.20;;;8.97;;
7833;SDS011;3962;42.696;23.354;2023-05-07T01:34:45;11.17;;;7.70;;
7833;SDS011;3962;42.696;23.354;2023-05-07T01:37:14;13.63;;;10.00;;
7833;SDS011;3962;42.696;23.354;2023-05-07T01:39:43;16.43;;;9.00;;
7833;SDS011;3962;42.696;23.354;2023-05-07T01:42:10;11.80;;;8.27;;
7833;SDS011;3962;42.696;23.354;2023-05-07T01:44:38;14.20;;;8.53;;
7833;SDS011;3962;42.696;23.354;2023-05-07T01:47:05;9.73;;;7.97;;
7833;SDS011;3962;42.696;23.354;2023-05-07T01:49:32;12.30;;;8.33;;
7833;SDS011;3962;42.696;23.354;2023-05-07T01:52:00;13.07;;;7.90;;
7833;SDS011;3962;42.696;23.354;2023-05-07T01:54:27;11.40;;;8.53;;
7833;SDS011;3962;42.696;23.354;2023-05-07T01:56:56;14.17;;;9.10;;
7833;SDS011;3962;42.696;23.354;2023-05-07T01:59:23;12.07;;;8.60;;
7833;SDS011;3962;42.696;23.354;2023-05-07T02:01:50;13.67;;;9.17;;
7833;SDS011;3962;42.696;23.354;2023-05-07T02:04:17;14.70;;;9.30;;
7833;SDS011;3962;42.696;23.354;2023-05-07T02:09:21;12.47;;;9.03;;
7833;SDS011;3962;42.696;23.354;2023-05-07T02:11:48;14.30;;;9.87;;
7833;SDS011;3962;42.696;23.354;2023-05-07T02:14:16;17.17;;;10.70;;
7833;SDS011;3962;42.696;23.354;2023-05-07T02:16:45;15.13;;;11.13;;
7833;SDS011;3962;42.696;23.354;2023-05-07T02:19:11;14.10;;;10.00;;
7833;SDS011;3962;42.696;23.354;2023-05-07T02:21:38;14.63;;;10.50;;
7833;SDS011;3962;42.696;23.354;2023-05-07T02:24:05;15.73;;;10.60;;
7833;SDS011;3962;42.696;23.354;2023-05-07T02:26:32;14.20;;;10.00;;
7833;SDS011;3962;42.696;23.354;2023-05-07T02:31:37;15.57;;;9.73;;
7833;SDS011;3962;42.696;23.354;2023-05-07T02:34:04;17.33;;;11.20;;
7833;SDS011;3962;42.696;23.354;2023-05-07T02:36:31;16.03;;;10.60;;
7833;SDS011;3962;42.696;23.354;2023-05-07T02:38:58;21.53;;;10.90;;
7833;SDS011;3962;42.696;23.354;2023-05-07T02:41:25;16.70;;;11.30;;
7833;SDS011;3962;42.696;23.354;2023-05-07T02:43:53;18.97;;;11.93;;
7833;SDS011;3962;42.696;23.354;2023-05-07T02:46:19;22.23;;;13.73;;
7833;SDS011;3962;42.696;23.354;2023-05-07T02:48:48;20.20;;;13.93;;
7833;SDS011;3962;42.696;23.354;2023-05-07T02:51:14;19.77;;;12.77;;
7833;SDS011;3962;42.696;23.354;2023-05-07T02:53:42;18.87;;;12.87;;
7833;SDS011;3962;42.696;23.354;2023-05-07T02:56:09;20.17;;;13.00;;
7833;SDS011;3962;42.696;23.354;2023-05-07T02:58:36;20.03;;;13.53;;
7833;SDS011;3962;42.696;23.354;2023-05-07T03:01:04;18.87;;;13.30;;
7833;SDS011;3962;42.696;23.354;2023-05-07T03:03:31;18.73;;;12.63;;
7833;SDS011;3962;42.696;23.354;2023-05-07T03:06:00;17.47;;;12.57;;
7833;SDS011;3962;42.696;23.354;2023-05-07T03:08:26;19.13;;;12.40;;
7833;SDS011;3962;42.696;23.354;2023-05-07T03:10:53;19.50;;;12.67;;
7833;SDS011;3962;42.696;23.354;2023-05-07T03:13:20;19.07;;;13.03;;
7833;SDS011;3962;42.696;23.354;2023-05-07T03:15:47;18.57;;;12.97;;
7833;SDS011;3962;42.696;23.354;2023-05-07T03:18:14;18.20;;;13.77;;
7833;SDS011;3962;42.696;23.354;2023-05-07T03:20:40;19.20;;;13.03;;
7833;SDS011;3962;42.696;23.354;2023-05-07T03:23:08;20.60;;;13.20;;
7833;SDS011;3962;42.696;23.354;2023-05-07T03:28:25;22.40;;;13.50;;
7833;SDS011;3962;42.696;23.354;2023-05-07T03:33:25;23.87;;;15.10;;
7833;SDS011;3962;42.696;23.354;2023-05-07T03:35:53;27.87;;;15.80;;
7833;SDS011;3962;42.696;23.354;2023-05-07T03:38:21;19.87;;;14.43;;
7833;SDS011;3962;42.696;23.354;2023-05-07T03:40:48;22.07;;;14.10;;
7833;SDS011;3962;42.696;23.354;2023-05-07T03:43:14;25.70;;;14.07;;
7833;SDS011;3962;42.696;23.354;2023-05-07T03:45:41;26.37;;;15.47;;
7833;SDS011;3962;42.696;23.354;2023-05-07T03:48:08;20.93;;;13.83;;
7833;SDS011;3962;42.696;23.354;2023-05-07T03:50:35;22.50;;;14.57;;
7833;SDS011;3962;42.696;23.354;2023-05-07T03:53:02;29.70;;;17.95;;
7833;SDS011;3962;42.696;23.354;2023-05-07T03:55:30;22.27;;;14.27;;
7833;SDS011;3962;42.696;23.354;2023-05-07T03:57:57;23.10;;;14.00;;
7833;SDS011;3962;42.696;23.354;2023-05-07T04:00:23;25.43;;;14.60;;
7833;SDS011;3962;42.696;23.354;2023-05-07T04:02:50;22.43;;;14.67;;
7833;SDS011;3962;42.696;23.354;2023-05-07T04:05:17;21.73;;;13.77;;
7833;SDS011;3962;42.696;23.354;2023-05-07T04:07:44;20.67;;;13.93;;
7833;SDS011;3962;42.696;23.354;2023-05-07T04:10:10;18.77;;;13.17;;
7833;SDS011;3962;42.696;23.354;2023-05-07T04:12:39;21.80;;;14.30;;
7833;SDS011;3962;42.696;23.354;2023-05-07T04:15:07;32.33;;;19.83;;
7833;SDS011;3962;42.696;23.354;2023-05-07T04:17:35;26.57;;;17.20;;
7833;SDS011;3962;42.696;23.354;2023-05-07T04:20:02;19.40;;;14.23;;
7833;SDS011;3962;42.696;23.354;2023-05-07T04:22:31;18.53;;;13.07;;
7833;SDS011;3962;42.696;23.354;2023-05-07T04:24:58;17.43;;;12.60;;
7833;SDS011;3962;42.696;23.354;2023-05-07T04:27:25;19.57;;;13.63;;
7833;SDS011;3962;42.696;23.354;2023-05-07T04:29:54;18.10;;;12.57;;
7833;SDS011;3962;42.696;23.354;2023-05-07T04:32:21;16.93;;;12.37;;
7833;SDS011;3962;42.696;23.354;2023-05-07T04:34:50;16.67;;;11.93;;
7833;SDS011;3962;42.696;23.354;2023-05-07T04:37:16;17.50;;;11.70;;
7833;SDS011;3962;42.696;23.354;2023-05-07T04:39:43;20.90;;;14.20;;
7833;SDS011;3962;42.696;23.354;2023-05-07T04:42:14;18.83;;;12.83;;
7833;SDS011;3962;42.696;23.354;2023-05-07T04:44:41;24.77;;;14.67;;
7833;SDS011;3962;42.696;23.354;2023-05-07T04:47:09;23.57;;;14.20;;
7833;SDS011;3962;42.696;23.354;2023-05-07T04:49:36;21.27;;;13.70;;
7833;SDS011;3962;42.696;23.354;2023-05-07T04:52:03;22.80;;;13.60;;
7833;SDS011;3962;42.696;23.354;2023-05-07T04:54:30;18.97;;;14.20;;
7833;SDS011;3962;42.696;23.354;2023-05-07T04:56:57;22.70;;;14.77;;
7833;SDS011;3962;42.696;23.354;2023-05-07T04:59:23;23.67;;;16.40;;
7833;SDS011;3962;42.696;23.354;2023-05-07T05:01:50;24.87;;;17.57;;
7833;SDS011;3962;42.696;23.354;2023-05-07T05:04:18;25.53;;;17.00;;
7833;SDS011;3962;42.696;23.354;2023-05-07T05:06:45;26.03;;;17.70;;
7833;SDS011;3962;42.696;23.354;2023-05-07T05:09:12;24.03;;;16.50;;
7833;SDS011;3962;42.696;23.354;2023-05-07T05:11:39;20.70;;;15.63;;
7833;SDS011;3962;42.696;23.354;2023-05-07T05:14:06;20.60;;;13.40;;
7833;SDS011;3962;42.696;23.354;2023-05-07T05:16:33;18.23;;;12.57;;
7833;SDS011;3962;42.696;23.354;2023-05-07T05:19:01;15.60;;;12.47;;
7833;SDS011;3962;42.696;23.354;2023-05-07T05:21:30;18.30;;;12.77;;
7833;SDS011;3962;42.696;23.354;2023-05-07T05:23:57;16.87;;;12.07;;
7833;SDS011;3962;42.696;23.354;2023-05-07T05:26:24;18.70;;;12.67;;
7833;SDS011;3962;42.696;23.354;2023-05-07T05:28:51;21.30;;;13.67;;
7833;SDS011;3962;42.696;23.354;2023-05-07T05:31:17;18.67;;;13.20;;
7833;SDS011;3962;42.696;23.354;2023-05-07T05:33:44;17.90;;;12.50;;
7833;SDS011;3962;42.696;23.354;2023-05-07T05:36:11;21.30;;;13.07;;
7833;SDS011;3962;42.696;23.354;2023-05-07T05:38:39;18.37;;;12.90;;
7833;SDS011;3962;42.696;23.354;2023-05-07T05:41:06;28.20;;;16.97;;
7833;SDS011;3962;42.696;23.354;2023-05-07T05:43:33;20.17;;;13.47;;
7833;SDS011;3962;42.696;23.354;2023-05-07T05:45:59;19.23;;;12.43;;
7833;SDS011;3962;42.696;23.354;2023-05-07T05:48:26;19.53;;;12.67;;
7833;SDS011;3962;42.696;23.354;2023-05-07T05:50:55;16.33;;;13.03;;
7833;SDS011;3962;42.696;23.354;2023-05-07T05:53:21;23.43;;;13.90;;
7833;SDS011;3962;42.696;23.354;2023-05-07T05:55:49;19.70;;;13.23;;
7833;SDS011;3962;42.696;23.354;2023-05-07T05:58:16;19.73;;;12.17;;
7833;SDS011;3962;42.696;23.354;2023-05-07T06:00:43;19.80;;;13.90;;
7833;SDS011;3962;42.696;23.354;2023-05-07T06:03:10;20.07;;;13.13;;
7833;SDS011;3962;42.696;23.354;2023-05-07T06:05:37;16.70;;;12.70;;
7833;SDS011;3962;42.696;23.354;2023-05-07T06:08:04;16.87;;;12.63;;
7833;SDS011;3962;42.696;23.354;2023-05-07T06:10:31;30.10;;;18.93;;
7833;SDS011;3962;42.696;23.354;2023-05-07T06:12:59;16.93;;;12.97;;
7833;SDS011;3962;42.696;23.354;2023-05-07T06:15:26;17.77;;;13.13;;
7833;SDS011;3962;42.696;23.354;2023-05-07T06:17:53;22.13;;;13.47;;
7833;SDS011;3962;42.696;23.354;2023-05-07T06:20:21;20.40;;;13.43;;
7833;SDS011;3962;42.696;23.354;2023-05-07T06:22:47;19.37;;;13.47;;
7833;SDS011;3962;42.696;23.354;2023-05-07T06:25:14;18.60;;;14.53;;
7833;SDS011;3962;42.696;23.354;2023-05-07T06:27:44;19.57;;;12.77;;
7833;SDS011;3962;42.696;23.354;2023-05-07T06:30:19;27.37;;;16.53;;
7833;SDS011;3962;42.696;23.354;2023-05-07T06:32:53;25.60;;;13.13;;
7833;SDS011;3962;42.696;23.354;2023-05-07T06:35:21;19.83;;;13.07;;
7833;SDS011;3962;42.696;23.354;2023-05-07T06:37:47;20.17;;;12.67;;
7833;SDS011;3962;42.696;23.354;2023-05-07T06:40:14;21.33;;;13.73;;
7833;SDS011;3962;42.696;23.354;2023-05-07T06:42:41;23.30;;;13.17;;
7833;SDS011;3962;42.696;23.354;2023-05-07T06:45:09;20.70;;;13.10;;
7833;SDS011;3962;42.696;23.354;2023-05-07T06:47:37;22.83;;;13.60;;
7833;SDS011;3962;42.696;23.354;2023-05-07T06:50:05;18.63;;;12.77;;
7833;SDS011;3962;42.696;23.354;2023-05-07T06:52:32;17.53;;;13.13;;
7833;SDS011;3962;42.696;23.354;2023-05-07T06:54:59;20.63;;;12.17;;
7833;SDS011;3962;42.696;23.354;2023-05-07T06:57:26;16.20;;;11.60;;
7833;SDS011;3962;42.696;23.354;2023-05-07T06:59:53;17.63;;;12.90;;
7833;SDS011;3962;42.696;23.354;2023-05-07T07:02:19;20.80;;;11.97;;
7833;SDS011;3962;42.696;23.354;2023-05-07T07:04:47;17.97;;;12.80;;
7833;SDS011;3962;42.696;23.354;2023-05-07T07:07:14;27.47;;;13.10;;
7833;SDS011;3962;42.696;23.354;2023-05-07T07:09:41;23.73;;;12.17;;
7833;SDS011;3962;42.696;23.354;2023-05-07T07:12:08;16.70;;;11.27;;
7833;SDS011;3962;42.696;23.354;2023-05-07T07:14:35;14.37;;;9.93;;
7833;SDS011;3962;42.696;23.354;2023-05-07T07:17:01;15.07;;;10.60;;
7833;SDS011;3962;42.696;23.354;2023-05-07T07:19:30;17.13;;;10.73;;
7833;SDS011;3962;42.696;23.354;2023-05-07T07:21:58;19.37;;;11.20;;
7833;SDS011;3962;42.696;23.354;2023-05-07T07:24:25;15.53;;;11.00;;
7833;SDS011;3962;42.696;23.354;2023-05-07T07:26:52;14.10;;;11.50;;
7833;SDS011;3962;42.696;23.354;2023-05-07T07:29:20;15.07;;;10.60;;
7833;SDS011;3962;42.696;23.354;2023-05-07T07:31:47;15.47;;;10.50;;
7833;SDS011;3962;42.696;23.354;2023-05-07T07:34:15;17.57;;;10.97;;
7833;SDS011;3962;42.696;23.354;2023-05-07T07:36:41;14.83;;;10.67;;
7833;SDS011;3962;42.696;23.354;2023-05-07T07:39:10;14.43;;;10.40;;
7833;SDS011;3962;42.696;23.354;2023-05-07T07:41:37;15.10;;;9.57;;
7833;SDS011;3962;42.696;23.354;2023-05-07T07:44:03;14.13;;;10.67;;
7833;SDS011;3962;42.696;23.354;2023-05-07T07:46:32;16.57;;;9.20;;
7833;SDS011;3962;42.696;23.354;2023-05-07T07:48:59;14.13;;;9.93;;
7833;SDS011;3962;42.696;23.354;2023-05-07T07:51:26;13.77;;;10.00;;
7833;SDS011;3962;42.696;23.354;2023-05-07T07:53:53;12.73;;;9.03;;
7833;SDS011;3962;42.696;23.354;2023-05-07T07:56:21;16.00;;;9.60;;
7833;SDS011;3962;42.696;23.354;2023-05-07T07:58:48;12.13;;;9.17;;
7833;SDS011;3962;42.696;23.354;2023-05-07T08:01:14;16.03;;;9.53;;
7833;SDS011;3962;42.696;23.354;2023-05-07T08:03:42;13.77;;;9.60;;
7833;SDS011;3962;42.696;23.354;2023-05-07T08:06:09;15.07;;;8.90;;
7833;SDS011;3962;42.696;23.354;2023-05-07T08:08:35;11.70;;;8.97;;
7833;SDS011;3962;42.696;23.354;2023-05-07T08:11:02;14.87;;;9.10;;
7833;SDS011;3962;42.696;23.354;2023-05-07T08:13:30;12.30;;;8.77;;
7833;SDS011;3962;42.696;23.354;2023-05-07T08:15:57;23.90;;;9.07;;
7833;SDS011;3962;42.696;23.354;2023-05-07T08:18:24;14.90;;;9.13;;
7833;SDS011;3962;42.696;23.354;2023-05-07T08:20:53;14.03;;;9.50;;
7833;SDS011;3962;42.696;23.354;2023-05-07T08:23:20;11.50;;;8.97;;
7833;SDS011;3962;42.696;23.354;2023-05-07T08:25:47;12.93;;;9.27;;
7833;SDS011;3962;42.696;23.354;2023-05-07T08:28:14;14.03;;;9.30;;
7833;SDS011;3962;42.696;23.354;2023-05-07T08:30:42;12.73;;;8.70;;
7833;SDS011;3962;42.696;23.354;2023-05-07T08:33:09;12.03;;;8.10;;
7833;SDS011;3962;42.696;23.354;2023-05-07T08:35:36;13.43;;;8.60;;
7833;SDS011;3962;42.696;23.354;2023-05-07T08:38:03;12.50;;;8.83;;
7833;SDS011;3962;42.696;23.354;2023-05-07T08:40:38;12.17;;;7.77;;
7833;SDS011;3962;42.696;23.354;2023-05-07T08:43:06;9.77;;;8.00;;
7833;SDS011;3962;42.696;23.354;2023-05-07T08:45:33;12.03;;;7.90;;
7833;SDS011;3962;42.696;23.354;2023-05-07T08:48:03;10.03;;;7.20;;
7833;SDS011;3962;42.696;23.354;2023-05-07T08:50:35;7.90;;;6.73;;
7833;SDS011;3962;42.696;23.354;2023-05-07T08:53:02;9.53;;;7.17;;
7833;SDS011;3962;42.696;23.354;2023-05-07T08:55:29;11.30;;;7.47;;
7833;SDS011;3962;42.696;23.354;2023-05-07T08:57:56;10.37;;;6.50;;
7833;SDS011;3962;42.696;23.354;2023-05-07T09:00:23;9.27;;;5.90;;
7833;SDS011;3962;42.696;23.354;2023-05-07T09:02:50;9.37;;;6.57;;
7833;SDS011;3962;42.696;23.354;2023-05-07T09:05:19;7.57;;;5.53;;
7833;SDS011;3962;42.696;23.354;2023-05-07T09:07:46;10.60;;;5.17;;
7833;SDS011;3962;42.696;23.354;2023-05-07T09:10:15;8.07;;;6.07;;
7833;SDS011;3962;42.696;23.354;2023-05-07T09:12:42;14.10;;;8.30;;
7833;SDS011;3962;42.696;23.354;2023-05-07T09:15:09;7.77;;;5.97;;
7833;SDS011;3962;42.696;23.354;2023-05-07T09:17:37;12.63;;;6.23;;
7833;SDS011;3962;42.696;23.354;2023-05-07T09:20:04;19.17;;;7.90;;
7833;SDS011;3962;42.696;23.354;2023-05-07T09:22:33;6.87;;;5.53;;
7833;SDS011;3962;42.696;23.354;2023-05-07T09:25:02;6.60;;;5.37;;
7833;SDS011;3962;42.696;23.354;2023-05-07T09:27:30;6.77;;;5.43;;
7833;SDS011;3962;42.696;23.354;2023-05-07T09:29:57;6.47;;;5.37;;
7833;SDS011;3962;42.696;23.354;2023-05-07T09:32:24;9.83;;;5.93;;
7833;SDS011;3962;42.696;23.354;2023-05-07T09:34:52;8.30;;;5.63;;
7833;SDS011;3962;42.696;23.354;2023-05-07T09:37:19;9.67;;;5.30;;
7833;SDS011;3962;42.696;23.354;2023-05-07T09:39:48;6.07;;;5.47;;
7833;SDS011;3962;42.696;23.354;2023-05-07T09:42:16;10.17;;;5.67;;
7833;SDS011;3962;42.696;23.354;2023-05-07T09:44:49;8.80;;;5.03;;
7833;SDS011;3962;42.696;23.354;2023-05-07T09:47:19;7.97;;;4.67;;
7833;SDS011;3962;42.696;23.354;2023-05-07T09:49:47;7.60;;;5.10;;
7833;SDS011;3962;42.696;23.354;2023-05-07T09:52:14;8.03;;;5.00;;
7833;SDS011;3962;42.696;23.354;2023-05-07T09:54:42;7.87;;;4.77;;
7833;SDS011;3962;42.696;23.354;2023-05-07T09:57:13;8.33;;;4.50;;
7833;SDS011;3962;42.696;23.354;2023-05-07T09:59:41;5.60;;;4.20;;
7833;SDS011;3962;42.696;23.354;2023-05-07T10:02:09;8.90;;;5.37;;
7833;SDS011;3962;42.696;23.354;2023-05-07T10:04:36;4.53;;;4.00;;
7833;SDS011;3962;42.696;23.354;2023-05-07T10:07:03;8.37;;;4.50;;
7833;SDS011;3962;42.696;23.354;2023-05-07T10:09:31;6.60;;;4.17;;
7833;SDS011;3962;42.696;23.354;2023-05-07T10:11:58;9.80;;;4.50;;
7833;SDS011;3962;42.696;23.354;2023-05-07T10:14:27;4.97;;;4.07;;
7833;SDS011;3962;42.696;23.354;2023-05-07T10:16:54;5.03;;;4.20;;
7833;SDS011;3962;42.696;23.354;2023-05-07T10:19:22;5.80;;;3.80;;
7833;SDS011;3962;42.696;23.354;2023-05-07T10:21:51;6.27;;;4.00;;
7833;SDS011;3962;42.696;23.354;2023-05-07T10:24:22;5.00;;;4.00;;
7833;SDS011;3962;42.696;23.354;2023-05-07T10:26:53;5.87;;;4.20;;
7833;SDS011;3962;42.696;23.354;2023-05-07T10:29:25;7.60;;;4.67;;
7833;SDS011;3962;42.696;23.354;2023-05-07T10:32:07;7.30;;;4.27;;
7833;SDS011;3962;42.696;23.354;2023-05-07T10:34:47;6.00;;;4.30;;
7833;SDS011;3962;42.696;23.354;2023-05-07T10:37:17;6.67;;;4.17;;
7833;SDS011;3962;42.696;23.354;2023-05-07T10:39:44;5.60;;;3.87;;
7833;SDS011;3962;42.696;23.354;2023-05-07T10:42:12;5.07;;;3.73;;
7833;SDS011;3962;42.696;23.354;2023-05-07T10:44:41;4.00;;;3.60;;
7833;SDS011;3962;42.696;23.354;2023-05-07T10:47:08;5.93;;;4.30;;
7833;SDS011;3962;42.696;23.354;2023-05-07T10:49:36;5.57;;;3.60;;
7833;SDS011;3962;42.696;23.354;2023-05-07T10:52:13;6.57;;;4.07;;
7833;SDS011;3962;42.696;23.354;2023-05-07T10:54:41;4.63;;;3.53;;
7833;SDS011;3962;42.696;23.354;2023-05-07T11:00:03;5.60;;;3.90;;
7833;SDS011;3962;42.696;23.354;2023-05-07T11:03:06;5.50;;;4.40;;
7833;SDS011;3962;42.696;23.354;2023-05-07T11:05:33;9.57;;;4.43;;
7833;SDS011;3962;42.696;23.354;2023-05-07T11:08:01;4.57;;;4.07;;
7833;SDS011;3962;42.696;23.354;2023-05-07T11:10:47;4.53;;;3.67;;
7833;SDS011;3962;42.696;23.354;2023-05-07T11:13:15;10.37;;;5.07;;
7833;SDS011;3962;42.696;23.354;2023-05-07T11:15:45;6.97;;;3.60;;
7833;SDS011;3962;42.696;23.354;2023-05-07T11:18:14;6.67;;;3.90;;
7833;SDS011;3962;42.696;23.354;2023-05-07T11:20:45;5.30;;;3.97;;
7833;SDS011;3962;42.696;23.354;2023-05-07T11:26:46;3.33;;;2.97;;
7833;SDS011;3962;42.696;23.354;2023-05-07T11:29:15;3.23;;;2.70;;
7833;SDS011;3962;42.696;23.354;2023-05-07T11:31:44;4.23;;;3.33;;
7833;SDS011;3962;42.696;23.354;2023-05-07T11:34:15;5.73;;;3.67;;
7833;SDS011;3962;42.696;23.354;2023-05-07T11:36:46;4.47;;;3.67;;
7833;SDS011;3962;42.696;23.354;2023-05-07T11:39:24;4.97;;;3.87;;
7833;SDS011;3962;42.696;23.354;2023-05-07T11:41:54;5.00;;;3.87;;
7833;SDS011;3962;42.696;23.354;2023-05-07T11:44:21;6.53;;;4.37;;
7833;SDS011;3962;42.696;23.354;2023-05-07T11:46:49;8.90;;;3.93;;
7833;SDS011;3962;42.696;23.354;2023-05-07T11:49:16;4.33;;;3.50;;
7833;SDS011;3962;42.696;23.354;2023-05-07T11:51:43;4.97;;;4.27;;
7833;SDS011;3962;42.696;23.354;2023-05-07T11:54:11;6.13;;;3.73;;
7833;SDS011;3962;42.696;23.354;2023-05-07T11:56:42;5.33;;;3.83;;
7833;SDS011;3962;42.696;23.354;2023-05-07T11:59:10;3.57;;;3.27;;
7833;SDS011;3962;42.696;23.354;2023-05-07T12:01:37;5.60;;;3.80;;
7833;SDS011;3962;42.696;23.354;2023-05-07T12:04:05;5.30;;;3.60;;
7833;SDS011;3962;42.696;23.354;2023-05-07T12:06:35;4.57;;;3.70;;
7833;SDS011;3962;42.696;23.354;2023-05-07T12:09:02;4.70;;;3.83;;
7833;SDS011;3962;42.696;23.354;2023-05-07T12:11:32;4.00;;;3.60;;
7833;SDS011;3962;42.696;23.354;2023-05-07T12:13:59;4.50;;;3.47;;
7833;SDS011;3962;42.696;23.354;2023-05-07T12:16:25;4.77;;;3.43;;
7833;SDS011;3962;42.696;23.354;2023-05-07T12:18:53;4.10;;;3.23;;
7833;SDS011;3962;42.696;23.354;2023-05-07T12:21:25;4.93;;;3.57;;
7833;SDS011;3962;42.696;23.354;2023-05-07T12:23:52;5.93;;;3.73;;
7833;SDS011;3962;42.696;23.354;2023-05-07T12:26:19;7.53;;;3.60;;
7833;SDS011;3962;42.696;23.354;2023-05-07T12:28:46;4.23;;;2.50;;
7833;SDS011;3962;42.696;23.354;2023-05-07T12:31:14;3.80;;;2.73;;
7833;SDS011;3962;42.696;23.354;2023-05-07T12:33:42;3.03;;;2.70;;
7833;SDS011;3962;42.696;23.354;2023-05-07T12:36:09;3.03;;;2.50;;
7833;SDS011;3962;42.696;23.354;2023-05-07T12:38:40;3.10;;;2.80;;
7833;SDS011;3962;42.696;23.354;2023-05-07T12:41:07;3.53;;;2.40;;
7833;SDS011;3962;42.696;23.354;2023-05-07T12:43:35;2.80;;;2.60;;
7833;SDS011;3962;42.696;23.354;2023-05-07T12:46:04;3.43;;;3.13;;
7833;SDS011;3962;42.696;23.354;2023-05-07T12:48:32;5.83;;;3.20;;
7833;SDS011;3962;42.696;23.354;2023-05-07T12:50:59;5.47;;;3.00;;
7833;SDS011;3962;42.696;23.354;2023-05-07T12:53:28;3.10;;;2.80;;
7833;SDS011;3962;42.696;23.354;2023-05-07T12:55:58;5.50;;;3.20;;
7833;SDS011;3962;42.696;23.354;2023-05-07T12:58:26;4.50;;;3.03;;
7833;SDS011;3962;42.696;23.354;2023-05-07T13:00:55;3.97;;;3.00;;
7833;SDS011;3962;42.696;23.354;2023-05-07T13:03:27;3.87;;;3.10;;
7833;SDS011;3962;42.696;23.354;2023-05-07T13:05:55;4.07;;;3.20;;
7833;SDS011;3962;42.696;23.354;2023-05-07T13:08:27;2.70;;;2.50;;
7833;SDS011;3962;42.696;23.354;2023-05-07T13:10:58;9.47;;;2.77;;
7833;SDS011;3962;42.696;23.354;2023-05-07T13:13:28;3.63;;;2.83;;
7833;SDS011;3962;42.696;23.354;2023-05-07T13:15:55;3.77;;;2.93;;
7833;SDS011;3962;42.696;23.354;2023-05-07T13:18:22;4.43;;;2.97;;
7833;SDS011;3962;42.696;23.354;2023-05-07T13:20:48;3.50;;;2.70;;
7833;SDS011;3962;42.696;23.354;2023-05-07T13:23:16;3.07;;;2.80;;
7833;SDS011;3962;42.696;23.354;2023-05-07T13:25:43;4.87;;;2.63;;
7833;SDS011;3962;42.696;23.354;2023-05-07T13:28:11;3.87;;;2.83;;
7833;SDS011;3962;42.696;23.354;2023-05-07T13:30:38;3.67;;;2.93;;
7833;SDS011;3962;42.696;23.354;2023-05-07T13:33:05;3.23;;;2.93;;
7833;SDS011;3962;42.696;23.354;2023-05-07T13:35:33;3.13;;;2.80;;
7833;SDS011;3962;42.696;23.354;2023-05-07T13:38:00;0.50;;;0.50;;
7833;SDS011;3962;42.696;23.354;2023-05-07T13:40:26;4.67;;;3.00;;
7833;SDS011;3962;42.696;23.354;2023-05-07T13:42:53;3.43;;;3.13;;
7833;SDS011;3962;42.696;23.354;2023-05-07T13:45:24;3.73;;;3.20;;
7833;SDS011;3962;42.696;23.354;2023-05-07T13:47:52;4.40;;;3.20;;
7833;SDS011;3962;42.696;23.354;2023-05-07T13:50:18;3.50;;;3.00;;
7833;SDS011;3962;42.696;23.354;2023-05-07T13:52:45;4.50;;;2.80;;
7833;SDS011;3962;42.696;23.354;2023-05-07T13:55:15;4.57;;;3.30;;
7833;SDS011;3962;42.696;23.354;2023-05-07T13:57:42;6.50;;;2.70;;
7833;SDS011;3962;42.696;23.354;2023-05-07T14:00:10;4.40;;;3.30;;
7833;SDS011;3962;42.696;23.354;2023-05-07T14:02:39;5.17;;;3.60;;
7833;SDS011;3962;42.696;23.354;2023-05-07T14:05:06;3.57;;;3.10;;
7833;SDS011;3962;42.696;23.354;2023-05-07T14:07:34;7.47;;;4.63;;
7833;SDS011;3962;42.696;23.354;2023-05-07T14:10:01;4.37;;;3.30;;
7833;SDS011;3962;42.696;23.354;2023-05-07T14:12:27;5.97;;;3.03;;
7833;SDS011;3962;42.696;23.354;2023-05-07T14:14:54;3.87;;;3.07;;
7833;SDS011;3962;42.696;23.354;2023-05-07T14:17:21;3.73;;;3.20;;
7833;SDS011;3962;42.696;23.354;2023-05-07T14:19:51;6.37;;;3.07;;
7833;SDS011;3962;42.696;23.354;2023-05-07T14:22:19;6.30;;;3.17;;
7833;SDS011;3962;42.696;23.354;2023-05-07T14:24:46;3.30;;;3.00;;
7833;SDS011;3962;42.696;23.354;2023-05-07T14:27:13;3.50;;;3.00;;
7833;SDS011;3962;42.696;23.354;2023-05-07T14:29:40;4.53;;;3.40;;
7833;SDS011;3962;42.696;23.354;2023-05-07T14:32:07;3.17;;;2.67;;
7833;SDS011;3962;42.696;23.354;2023-05-07T14:34:34;5.20;;;3.33;;
7833;SDS011;3962;42.696;23.354;2023-05-07T14:37:02;4.00;;;2.87;;
7833;SDS011;3962;42.696;23.354;2023-05-07T14:39:29;3.33;;;3.03;;
7833;SDS011;3962;42.696;23.354;2023-05-07T14:41:57;4.00;;;3.23;;
7833;SDS011;3962;42.696;23.354;2023-05-07T14:44:23;4.43;;;3.30;;
7833;SDS011;3962;42.696;23.354;2023-05-07T14:46:50;3.37;;;2.73;;
7833;SDS011;3962;42.696;23.354;2023-05-07T14:49:17;15.83;;;9.73;;
7833;SDS011;3962;42.696;23.354;2023-05-07T14:51:44;4.33;;;3.47;;
7833;SDS011;3962;42.696;23.354;2023-05-07T14:54:13;4.23;;;2.80;;
7833;SDS011;3962;42.696;23.354;2023-05-07T14:56:40;5.47;;;3.27;;
7833;SDS011;3962;42.696;23.354;2023-05-07T14:59:08;3.87;;;2.87;;
7833;SDS011;3962;42.696;23.354;2023-05-07T15:01:35;4.03;;;3.47;;
7833;SDS011;3962;42.696;23.354;2023-05-07T15:04:03;6.90;;;3.40;;
7833;SDS011;3962;42.696;23.354;2023-05-07T15:06:30;4.20;;;3.00;;
7833;SDS011;3962;42.696;23.354;2023-05-07T15:08:57;6.23;;;3.47;;
7833;SDS011;3962;42.696;23.354;2023-05-07T15:11:25;7.07;;;4.33;;